createdAt,value
2022-08-09T00:00:05.849Z,2.25
2022-08-09T00:01:10.658Z,1.90
2022-08-09T00:02:21.050Z,3.88
2022-08-09T00:04:06.166Z,2.47
2022-08-09T00:05:03.580Z,1.50
2022-08-09T00:06:23.036Z,2.30
2022-08-09T00:07:29.752Z,2.05
2022-08-09T00:08:51.927Z,1.80
2022-08-09T00:09:54.333Z,1.98
2022-08-09T00:10:58.943Z,2.08
2022-08-09T00:12:03.896Z,2.67
2022-08-09T00:13:16.658Z,2.75
2022-08-09T00:14:30.640Z,1.80
2022-08-09T00:15:57.912Z,2.10
2022-08-09T00:17:06.721Z,1.63
2022-08-09T00:18:11.410Z,2.60
2022-08-09T00:19:18.567Z,3.00
2022-08-09T00:20:21.344Z,4.05
2022-08-09T00:21:26.537Z,5.65
2022-08-09T00:22:31.666Z,13.13
2022-08-09T00:23:55.257Z,18.85
2022-08-09T00:25:08.534Z,184.52
2022-08-09T00:26:12.439Z,1.55
2022-08-09T00:27:19.201Z,2.80
2022-08-09T00:28:23.048Z,2.42
2022-08-09T00:29:39.117Z,1.85
2022-08-09T00:30:55.863Z,3.22
2022-08-09T00:32:01.177Z,3.90
2022-08-09T00:33:05.530Z,10.40
2022-08-09T00:34:10.835Z,18.85
2022-08-09T00:35:15.692Z,29.77
2022-08-09T00:36:18.714Z,612.35
2022-08-09T00:37:24.069Z,882.08
2022-08-09T00:38:29.140Z,863.22
2022-08-09T00:40:10.405Z,779.58
2022-08-09T00:40:55.923Z,724.53
2022-08-09T00:44:09.935Z,659.55
2022-08-09T00:44:15.930Z,579.03
2022-08-09T00:44:49.798Z,404.05
2022-08-09T00:45:53.941Z,348.50
2022-08-09T00:47:04.775Z,326.23
2022-08-09T00:48:07.851Z,346.77
2022-08-09T00:49:20.601Z,338.60
2022-08-09T00:50:23.636Z,320.73
2022-08-09T00:51:28.426Z,320.63
2022-08-09T00:52:37.557Z,310.60
2022-08-09T00:53:46.435Z,312.08
2022-08-09T00:54:49.458Z,299.20
2022-08-09T00:56:04.750Z,309.00
2022-08-09T00:57:08.824Z,304.35
2022-08-09T00:58:25.561Z,311.95
2022-08-09T00:59:41.319Z,293.63
2022-08-09T01:00:52.741Z,317.33
2022-08-09T01:01:58.591Z,300.27
2022-08-09T01:03:12.504Z,324.63
2022-08-09T01:04:28.725Z,468.55
2022-08-09T01:05:51.670Z,553.03
2022-08-09T01:07:07.039Z,512.08
2022-08-09T01:08:26.863Z,118.65
2022-08-09T01:09:42.620Z,397.80
2022-08-09T01:10:55.388Z,365.27
2022-08-09T01:12:04.046Z,339.27
2022-08-09T01:13:18.197Z,208.60
2022-08-09T01:14:33.348Z,285.10
2022-08-09T01:15:40.889Z,380.45
2022-08-09T01:16:49.760Z,356.48
2022-08-09T01:17:59.486Z,442.58
2022-08-09T01:19:39.953Z,503.60
2022-08-09T01:20:48.718Z,289.48
2022-08-09T01:22:01.320Z,31.67
2022-08-09T01:24:00.849Z,3.47
2022-08-09T01:25:00.841Z,6.25
2022-08-09T01:26:18.471Z,75.45
2022-08-09T01:27:27.378Z,132.18
2022-08-09T01:28:32.281Z,183.70
2022-08-09T01:29:56.304Z,136.07
2022-08-09T01:31:01.325Z,7.82
2022-08-09T01:32:31.361Z,3.35
2022-08-09T01:33:41.794Z,22.33
2022-08-09T01:34:45.272Z,6.65
2022-08-09T01:35:57.445Z,102.05
2022-08-09T01:37:04.757Z,2.70
2022-08-09T01:38:15.372Z,2.30
2022-08-09T01:39:19.962Z,2.88
2022-08-09T01:40:31.157Z,2.78
2022-08-09T01:41:36.346Z,3.45
2022-08-09T01:43:01.506Z,2.60
2022-08-09T01:44:06.288Z,2.72
2022-08-09T01:45:13.837Z,2.65
2022-08-09T01:46:18.242Z,2.30
2022-08-09T01:47:31.394Z,2.38
2022-08-09T01:48:36.172Z,2.72
2022-08-09T01:49:48.878Z,3.22
2022-08-09T01:50:55.531Z,2.90
2022-08-09T01:52:07.434Z,3.10
2022-08-09T01:53:20.026Z,3.25
2022-08-09T01:54:32.847Z,2.80
2022-08-09T01:56:47.101Z,2.70
2022-08-09T01:57:58.608Z,2.30
2022-08-09T01:59:08.478Z,3.33
2022-08-09T02:00:19.436Z,2.60
2022-08-09T02:01:59.405Z,3.75
2022-08-09T02:03:05.339Z,2.40
2022-08-09T02:04:13.499Z,2.70
2022-08-09T02:05:21.683Z,3.10
2022-08-09T02:06:58.705Z,2.67
2022-08-09T02:08:41.308Z,3.00
2022-08-09T02:09:41.874Z,2.60
2022-08-09T02:10:51.654Z,2.42
2022-08-09T02:11:55.552Z,2.65
2022-08-09T02:13:06.095Z,3.72
2022-08-09T02:14:15.764Z,3.35
2022-08-09T02:15:48.812Z,2.92
2022-08-09T02:16:59.873Z,2.47
2022-08-09T02:18:23.669Z,3.03
2022-08-09T02:19:38.812Z,5.75
2022-08-09T02:20:51.476Z,3.83
2022-08-09T02:21:58.271Z,3.13
2022-08-09T02:23:09.041Z,3.30
2022-08-09T02:24:26.467Z,4.20
2022-08-09T02:25:42.649Z,4.15
2022-08-09T02:26:55.948Z,3.75
2022-08-09T02:28:09.770Z,4.78
2022-08-09T02:29:24.799Z,3.47
2022-08-09T02:30:34.457Z,2.80
2022-08-09T02:31:41.760Z,3.83
2022-08-09T02:32:51.047Z,3.88
2022-08-09T02:34:07.252Z,3.38
2022-08-09T02:36:01.304Z,4.45
2022-08-09T02:36:54.494Z,674.88
2022-08-09T02:38:00.835Z,646.63
2022-08-09T02:39:14.245Z,430.90
2022-08-09T02:40:27.119Z,490.42
2022-08-09T02:41:41.219Z,3.53
2022-08-09T02:42:51.168Z,593.67
2022-08-09T02:43:59.948Z,623.40
2022-08-09T02:45:17.572Z,719.17
2022-08-09T02:46:21.612Z,606.88
2022-08-09T02:47:26.962Z,534.97
2022-08-09T02:48:39.090Z,447.90
2022-08-09T02:50:01.617Z,600.85
2022-08-09T02:51:06.883Z,317.55
2022-08-09T02:52:16.592Z,360.15
2022-08-09T02:53:27.457Z,382.45
2022-08-09T02:54:32.894Z,94.20
2022-08-09T02:55:46.204Z,136.63
2022-08-09T02:56:54.017Z,223.20
2022-08-09T02:58:35.270Z,247.13
2022-08-09T02:59:36.359Z,137.57
2022-08-09T03:00:58.276Z,110.82
2022-08-09T03:02:07.080Z,177.27
2022-08-09T03:03:21.712Z,258.38
2022-08-09T03:04:42.803Z,4.80
2022-08-09T03:05:46.688Z,4.90
2022-08-09T03:06:53.678Z,4.10
2022-08-09T03:07:59.541Z,3.75
2022-08-09T03:09:03.132Z,4.18
2022-08-09T03:10:09.290Z,4.70
2022-08-09T03:12:05.205Z,4.68
2022-08-09T03:12:42.294Z,4.53
2022-08-09T03:13:58.428Z,12.00
2022-08-09T03:15:05.799Z,542.67
2022-08-09T03:16:11.433Z,3.40
2022-08-09T03:17:26.392Z,3.25
2022-08-09T03:18:30.642Z,4.10
2022-08-09T03:19:59.415Z,4.80
2022-08-09T03:21:04.012Z,269.20
2022-08-09T03:22:12.260Z,591.75
2022-08-09T03:23:32.740Z,3.38
2022-08-09T03:24:51.055Z,4.07
2022-08-09T03:26:04.996Z,5.05
2022-08-09T03:27:09.405Z,3.55
2022-08-09T03:28:16.316Z,4.75
2022-08-09T03:29:22.620Z,3.08
2022-08-09T03:30:33.717Z,2.80
2022-08-09T03:31:42.595Z,2.97
2022-08-09T03:33:17.201Z,3.53
2022-08-09T03:34:20.571Z,4.15
2022-08-09T03:36:36.899Z,3.90
2022-08-09T03:37:55.835Z,3.38
2022-08-09T03:39:02.271Z,3.05
2022-08-09T03:40:06.105Z,3.25
2022-08-09T03:41:15.439Z,3.45
2022-08-09T03:42:26.284Z,2.92
2022-08-09T03:43:33.721Z,3.63
2022-08-09T03:44:38.561Z,3.97
2022-08-09T03:46:04.341Z,4.65
2022-08-09T03:47:10.452Z,3.22
2022-08-09T03:48:12.528Z,4.38
2022-08-09T03:49:25.453Z,3.33
2022-08-09T03:50:36.621Z,3.35
2022-08-09T03:51:56.443Z,4.68
2022-08-09T03:53:06.104Z,4.10
2022-08-09T03:54:15.134Z,3.95
2022-08-09T03:55:22.197Z,4.03
2022-08-09T03:56:25.541Z,4.88
2022-08-09T03:57:30.242Z,4.35
2022-08-09T03:58:34.198Z,4.13
2022-08-09T03:59:43.277Z,3.65
2022-08-09T04:00:56.777Z,3.50
2022-08-09T04:02:02.621Z,3.35
2022-08-09T04:03:15.290Z,4.07
2022-08-09T04:04:22.107Z,3.28
2022-08-09T04:05:29.556Z,3.90
2022-08-09T04:06:36.428Z,4.07
2022-08-09T04:07:52.502Z,3.75
2022-08-09T04:09:02.867Z,4.40
2022-08-09T04:10:29.099Z,3.35
2022-08-09T04:11:51.559Z,3.67
2022-08-09T04:12:57.711Z,3.00
2022-08-09T04:14:54.158Z,4.55
2022-08-09T04:16:47.421Z,489.17
2022-08-09T04:17:52.755Z,829.65
2022-08-09T04:19:02.386Z,728.88
2022-08-09T04:20:08.480Z,751.67
2022-08-09T04:21:13.109Z,794.58
2022-08-09T04:22:15.128Z,756.35
2022-08-09T04:23:24.488Z,748.60
2022-08-09T04:24:27.711Z,820.90
2022-08-09T04:25:32.980Z,812.80
2022-08-09T04:26:38.263Z,802.35
2022-08-09T04:27:48.916Z,806.20
2022-08-09T04:28:54.074Z,796.78
2022-08-09T04:30:02.635Z,788.08
2022-08-09T04:31:08.333Z,789.65
2022-08-09T04:32:14.274Z,768.75
2022-08-09T04:33:16.342Z,756.78
2022-08-09T04:34:30.727Z,4.13
2022-08-09T04:35:34.278Z,4.40
2022-08-09T04:36:41.330Z,3.67
2022-08-09T04:37:54.890Z,3.80
2022-08-09T04:38:59.567Z,3.88
2022-08-09T04:40:04.590Z,6.15
2022-08-09T04:41:09.810Z,3.85
2022-08-09T04:42:16.686Z,4.28
2022-08-09T04:43:20.745Z,4.78
2022-08-09T04:44:26.236Z,4.20
2022-08-09T04:45:30.659Z,3.95
2022-08-09T04:46:38.270Z,4.07
2022-08-09T04:48:02.101Z,4.07
2022-08-09T04:49:07.828Z,4.50
2022-08-09T04:50:15.614Z,4.00
2022-08-09T04:51:21.796Z,4.35
2022-08-09T04:52:30.620Z,4.75
2022-08-09T04:53:32.676Z,4.22
2022-08-09T04:54:39.354Z,4.35
2022-08-09T04:55:57.280Z,4.22
2022-08-09T04:57:03.790Z,3.92
2022-08-09T04:58:09.938Z,3.75
2022-08-09T04:59:15.458Z,4.18
2022-08-09T05:00:20.830Z,3.47
2022-08-09T05:01:22.941Z,3.47
2022-08-09T05:02:28.942Z,3.88
2022-08-09T05:03:42.567Z,3.80
2022-08-09T05:04:48.467Z,5.43
2022-08-09T05:06:04.334Z,4.18
2022-08-09T05:07:12.848Z,3.80
2022-08-09T05:08:21.332Z,3.80
2022-08-09T05:09:48.791Z,2.97
2022-08-09T05:10:50.730Z,3.58
2022-08-09T05:11:52.774Z,3.40
2022-08-09T05:12:57.706Z,3.85
2022-08-09T05:14:01.739Z,3.15
2022-08-09T05:15:38.743Z,3.17
2022-08-09T05:16:58.197Z,3.67
2022-08-09T05:18:38.047Z,2.58
2022-08-09T05:19:25.800Z,3.33
2022-08-09T05:20:29.966Z,3.38
2022-08-09T05:21:47.152Z,3.08
2022-08-09T05:23:57.134Z,3.58
2022-08-09T05:24:24.301Z,2.63
2022-08-09T05:25:28.341Z,2.80
2022-08-09T05:26:45.519Z,2.92
2022-08-09T05:27:48.476Z,3.47
2022-08-09T05:28:53.262Z,2.60
2022-08-09T05:29:55.316Z,2.95
2022-08-09T05:31:00.077Z,3.75
2022-08-09T05:32:11.783Z,4.22
2022-08-09T05:33:26.378Z,3.25
2022-08-09T05:34:37.618Z,3.47
2022-08-09T05:35:47.038Z,3.05
2022-08-09T05:36:58.836Z,3.05
2022-08-09T05:38:04.226Z,3.30
2022-08-09T05:39:10.409Z,2.45
2022-08-09T05:40:13.428Z,2.60
2022-08-09T05:41:18.537Z,3.08
2022-08-09T05:42:22.085Z,2.50
2022-08-09T05:43:35.381Z,2.30
2022-08-09T05:44:38.553Z,3.47
2022-08-09T05:45:56.715Z,2.90
2022-08-09T05:46:59.434Z,3.15
2022-08-09T05:48:03.981Z,3.30
2022-08-09T05:49:07.441Z,3.60
2022-08-09T05:50:39.978Z,2.75
2022-08-09T05:51:55.465Z,4.25
2022-08-09T05:53:02.547Z,2.00
2022-08-09T05:54:05.825Z,2.85
2022-08-09T05:55:20.669Z,3.03
2022-08-09T05:56:26.466Z,3.92
2022-08-09T05:57:50.814Z,5.13
2022-08-09T06:00:01.081Z,3.13
2022-08-09T06:01:06.709Z,3.63
2022-08-09T06:02:09.976Z,4.05
2022-08-09T06:03:19.910Z,5.47
2022-08-09T06:04:23.364Z,7.22
2022-08-09T06:05:30.654Z,5.85
2022-08-09T06:06:53.688Z,5.53
2022-08-09T06:08:07.896Z,5.03
2022-08-09T06:09:40.798Z,4.90
2022-08-09T06:10:40.963Z,3.80
2022-08-09T06:11:56.821Z,4.60
2022-08-09T06:13:04.571Z,4.47
2022-08-09T06:14:14.791Z,5.65
2022-08-09T06:15:20.355Z,5.22
2022-08-09T06:16:23.670Z,5.00
2022-08-09T06:17:40.087Z,3.85
2022-08-09T06:18:42.789Z,3.83
2022-08-09T06:19:48.403Z,2.60
2022-08-09T06:20:54.883Z,4.05
2022-08-09T06:22:02.708Z,2.42
2022-08-09T06:23:08.411Z,3.88
2022-08-09T06:24:16.945Z,5.20
2022-08-09T06:25:19.385Z,3.72
2022-08-09T06:26:28.155Z,2.70
2022-08-09T06:27:42.871Z,3.10
2022-08-09T06:28:45.646Z,4.00
2022-08-09T06:29:58.591Z,4.45
2022-08-09T06:31:11.689Z,5.53
2022-08-09T06:32:53.452Z,4.63
2022-08-09T06:33:42.148Z,6.45
2022-08-09T06:34:53.167Z,4.60
2022-08-09T06:35:58.504Z,3.85
2022-08-09T06:37:00.736Z,4.60
2022-08-09T06:38:06.940Z,6.50
2022-08-09T06:39:12.753Z,6.78
2022-08-09T06:40:21.787Z,8.55
2022-08-09T06:42:51.389Z,5.70
2022-08-09T06:43:53.447Z,6.38
2022-08-09T06:44:58.273Z,6.47
2022-08-09T06:46:07.568Z,7.03
2022-08-09T06:47:15.410Z,7.35
2022-08-09T06:48:17.436Z,8.40
2022-08-09T06:50:12.234Z,6.10
2022-08-09T06:50:57.364Z,5.88
2022-08-09T06:52:02.917Z,4.72
2022-08-09T06:53:07.958Z,4.13
2022-08-09T06:54:16.011Z,3.88
2022-08-09T06:55:30.121Z,3.90
2022-08-09T07:00:51.087Z,2.70
2022-08-09T07:00:55.907Z,2.40
2022-08-09T07:01:59.665Z,3.00
2022-08-09T07:03:08.585Z,2.83
2022-08-09T07:04:20.226Z,2.30
2022-08-09T07:05:22.561Z,2.47
2022-08-09T07:06:27.932Z,2.38
2022-08-09T07:08:00.847Z,2.85
2022-08-09T07:08:56.495Z,3.40
2022-08-09T07:10:14.324Z,3.00
2022-08-09T07:11:25.843Z,3.20
2022-08-09T07:12:40.600Z,2.60
2022-08-09T07:14:05.009Z,2.53
2022-08-09T07:16:35.324Z,2.80
2022-08-09T07:16:41.533Z,2.95
2022-08-09T07:17:52.607Z,2.60
2022-08-09T07:19:01.122Z,2.67
2022-08-09T07:20:03.338Z,2.10
2022-08-09T07:21:08.831Z,3.53
2022-08-09T07:22:11.655Z,2.78
2022-08-09T07:23:18.769Z,3.60
2022-08-09T07:24:21.997Z,2.65
2022-08-09T07:25:42.781Z,2.92
2022-08-09T07:26:45.998Z,2.77
2022-08-09T07:27:55.742Z,2.78
2022-08-09T07:29:09.328Z,3.58
2022-08-09T07:30:18.298Z,3.38
2022-08-09T07:31:20.443Z,2.72
2022-08-09T07:32:32.022Z,2.95
2022-08-09T07:33:52.920Z,3.08
2022-08-09T07:35:00.986Z,2.90
2022-08-09T07:36:09.387Z,2.20
2022-08-09T07:37:15.797Z,2.10
2022-08-09T07:38:18.673Z,2.35
2022-08-09T07:39:40.795Z,2.60
2022-08-09T07:41:08.318Z,2.88
2022-08-09T07:42:11.765Z,2.25
2022-08-09T07:43:17.090Z,2.70
2022-08-09T07:44:30.284Z,2.00
2022-08-09T07:45:39.779Z,2.30
2022-08-09T07:46:43.072Z,3.97
2022-08-09T07:48:00.961Z,2.58
2022-08-09T07:49:09.256Z,3.38
2022-08-09T07:50:17.783Z,3.00
2022-08-09T07:52:05.878Z,3.08
2022-08-09T07:52:47.124Z,2.20
2022-08-09T07:54:06.183Z,2.17
2022-08-09T07:55:12.643Z,3.05
2022-08-09T07:56:26.830Z,3.17
2022-08-09T07:57:36.029Z,2.40
2022-08-09T07:58:38.429Z,3.28
2022-08-09T07:59:45.695Z,3.83
2022-08-09T08:00:59.165Z,3.95
2022-08-09T08:02:16.651Z,4.35
2022-08-09T08:03:21.590Z,4.97
2022-08-09T08:04:32.936Z,2.35
2022-08-09T08:05:39.181Z,4.40
2022-08-09T08:07:00.175Z,6.05
2022-08-09T08:09:01.542Z,7.38
2022-08-09T08:09:51.774Z,2.28
2022-08-09T08:11:15.182Z,2.40
2022-08-09T08:12:29.563Z,2.15
2022-08-09T08:13:39.966Z,3.35
2022-08-09T08:15:00.808Z,3.67
2022-08-09T08:16:03.502Z,3.17
2022-08-09T08:17:08.938Z,3.58
2022-08-09T08:18:16.228Z,4.47
2022-08-09T08:19:22.037Z,2.10
2022-08-09T08:20:29.561Z,2.53
2022-08-09T08:21:39.471Z,2.25
2022-08-09T08:22:41.961Z,2.35
2022-08-09T08:23:56.165Z,3.40
2022-08-09T08:24:58.482Z,2.47
2022-08-09T08:26:08.022Z,1.98
2022-08-09T08:27:16.500Z,2.92
2022-08-09T08:28:32.038Z,2.72
2022-08-09T08:29:39.612Z,2.67
2022-08-09T08:30:50.308Z,2.20
2022-08-09T08:32:03.248Z,2.25
2022-08-09T08:33:11.983Z,3.88
2022-08-09T08:34:14.300Z,4.07
2022-08-09T08:35:19.077Z,3.75
2022-08-09T08:36:28.375Z,4.03
2022-08-09T08:37:41.453Z,3.58
2022-08-09T08:39:00.029Z,2.30
2022-08-09T08:40:05.289Z,2.78
2022-08-09T08:41:07.844Z,2.22
2022-08-09T08:42:14.425Z,3.03
2022-08-09T08:43:19.157Z,2.55
2022-08-09T08:44:31.793Z,1.92
2022-08-09T08:45:51.743Z,2.22
2022-08-09T08:47:04.525Z,3.42
2022-08-09T08:48:19.570Z,3.88
2022-08-09T08:49:26.817Z,3.25
2022-08-09T08:50:45.468Z,2.72
2022-08-09T08:52:00.181Z,3.35
2022-08-09T08:53:15.864Z,2.20
2022-08-09T08:54:28.113Z,2.83
2022-08-09T08:55:32.358Z,2.65
2022-08-09T08:56:38.566Z,3.03
2022-08-09T08:57:56.586Z,3.13
2022-08-09T08:59:07.968Z,2.33
2022-08-09T09:00:30.230Z,4.53
2022-08-09T09:01:52.152Z,2.97
2022-08-09T09:03:12.037Z,2.72
2022-08-09T09:04:27.087Z,1.95
2022-08-09T09:05:59.925Z,2.25
2022-08-09T09:07:08.123Z,2.40
2022-08-09T09:08:30.388Z,2.50
2022-08-09T09:09:58.763Z,2.15
2022-08-09T09:11:05.836Z,2.25
2022-08-09T09:12:12.130Z,2.80
2022-08-09T09:13:22.323Z,2.67
2022-08-09T09:14:27.176Z,2.63
2022-08-09T09:15:35.017Z,2.67
2022-08-09T09:16:37.163Z,2.38
2022-08-09T09:17:49.243Z,2.30
2022-08-09T09:19:10.815Z,2.95
2022-08-09T09:20:21.280Z,2.53
2022-08-09T09:21:26.201Z,2.20
2022-08-09T09:22:31.492Z,2.33
2022-08-09T09:23:49.795Z,3.05
2022-08-09T09:25:39.305Z,3.28
2022-08-09T09:26:27.875Z,1.95
2022-08-09T09:28:05.804Z,2.08
2022-08-09T09:29:04.260Z,2.80
2022-08-09T09:30:31.560Z,2.95
2022-08-09T09:32:03.467Z,2.42
2022-08-09T09:33:13.740Z,1.90
2022-08-09T09:34:18.320Z,1.73
2022-08-09T09:35:24.616Z,1.70
2022-08-09T09:36:40.161Z,2.83
2022-08-09T09:37:56.984Z,2.00
2022-08-09T09:39:02.470Z,1.65
2022-08-09T09:40:13.204Z,2.35
2022-08-09T09:41:49.882Z,1.67
2022-08-09T09:42:56.244Z,2.35
2022-08-09T09:44:12.760Z,2.55
2022-08-09T09:45:26.627Z,2.17
2022-08-09T09:46:45.644Z,2.15
2022-08-09T09:47:59.567Z,1.83
2022-08-09T09:49:04.989Z,4.35
2022-08-09T09:50:15.928Z,83.55
2022-08-09T09:51:26.011Z,4.72
2022-08-09T09:52:53.668Z,286.85
2022-08-09T09:54:20.269Z,408.58
2022-08-09T09:55:32.040Z,262.90
2022-08-09T09:56:37.472Z,331.05
2022-08-09T09:58:16.155Z,647.40
2022-08-09T09:59:35.163Z,753.42
2022-08-09T10:00:43.856Z,638.33
2022-08-09T10:02:02.752Z,197.35
2022-08-09T10:03:11.697Z,201.45
2022-08-09T10:04:22.772Z,332.52
2022-08-09T10:06:03.722Z,343.08
2022-08-09T10:06:57.805Z,234.77
2022-08-09T10:08:27.466Z,116.05
2022-08-09T10:09:29.644Z,61.83
2022-08-09T10:10:34.260Z,21.67
2022-08-09T10:11:59.624Z,63.38
2022-08-09T10:13:01.373Z,248.18
2022-08-09T10:14:06.941Z,471.20
2022-08-09T10:15:17.642Z,573.95
2022-08-09T10:16:58.346Z,718.40
2022-08-09T10:17:57.024Z,618.83
2022-08-09T10:19:07.412Z,541.00
2022-08-09T10:20:35.760Z,441.00
2022-08-09T10:21:49.791Z,415.17
2022-08-09T10:23:00.947Z,401.17
2022-08-09T10:24:07.102Z,294.10
2022-08-09T10:25:20.830Z,251.63
2022-08-09T10:26:26.695Z,445.15
2022-08-09T10:27:38.460Z,481.88
2022-08-09T10:28:49.026Z,521.17
2022-08-09T10:31:21.642Z,417.33
2022-08-09T10:33:01.444Z,329.52
2022-08-09T10:34:18.396Z,289.70
2022-08-09T10:35:35.610Z,278.40
2022-08-09T10:36:42.292Z,251.82
2022-08-09T10:37:44.805Z,229.52
2022-08-09T10:38:56.383Z,213.23
2022-08-09T10:40:02.316Z,88.57
2022-08-09T10:41:07.496Z,51.33
2022-08-09T10:42:10.864Z,45.08
2022-08-09T10:43:16.341Z,73.50
2022-08-09T10:44:30.501Z,193.45
2022-08-09T10:45:35.675Z,5.97
2022-08-09T10:48:16.899Z,27.90
2022-08-09T10:48:39.456Z,3.95
2022-08-09T10:49:51.761Z,2.42
2022-08-09T10:51:09.759Z,8.93
2022-08-09T10:52:32.375Z,3.08
2022-08-09T10:54:05.918Z,2.40
2022-08-09T10:55:23.580Z,1.50
2022-08-09T10:56:30.758Z,2.42
2022-08-09T10:57:37.555Z,3.30
2022-08-09T10:58:42.813Z,2.00
2022-08-09T10:59:57.730Z,2.72
2022-08-09T11:03:07.387Z,1.50
2022-08-09T11:03:14.428Z,1.70
2022-08-09T11:04:27.841Z,2.58
2022-08-09T11:05:39.200Z,3.88
2022-08-09T11:07:55.187Z,2.08
2022-08-09T11:09:06.026Z,1.95
2022-08-09T11:10:20.151Z,2.47
2022-08-09T11:13:51.426Z,1.63
2022-08-09T11:14:48.517Z,1.92
2022-08-09T11:16:04.790Z,1.63
2022-08-09T11:17:57.026Z,1.30
2022-08-09T11:19:08.076Z,1.60
2022-08-09T11:20:22.196Z,1.70
2022-08-09T11:21:55.203Z,1.85
2022-08-09T11:24:13.339Z,1.35
2022-08-09T11:25:18.828Z,1.63
2022-08-09T11:26:47.277Z,1.35
2022-08-09T11:28:05.589Z,1.73
2022-08-09T11:30:02.343Z,2.47
2022-08-09T11:31:49.453Z,1.77
2022-08-09T11:33:00.100Z,2.42
2022-08-09T11:34:06.669Z,1.67
2022-08-09T11:35:17.810Z,1.55
2022-08-09T11:36:35.556Z,1.70
2022-08-09T11:37:43.306Z,2.47
2022-08-09T11:39:04.951Z,2.45
2022-08-09T11:40:09.268Z,1.20
2022-08-09T11:41:37.927Z,1.40
2022-08-09T11:42:47.124Z,3.08
2022-08-09T11:43:53.428Z,2.33
2022-08-09T11:44:58.221Z,2.25
2022-08-09T11:46:01.830Z,2.05
2022-08-09T11:47:10.956Z,2.03
2022-08-09T11:48:27.016Z,2.10
2022-08-09T11:51:19.069Z,1.52
2022-08-09T11:52:54.183Z,2.00
2022-08-09T11:53:59.196Z,1.88
2022-08-09T11:55:53.471Z,2.10
2022-08-09T11:58:00.734Z,1.90
2022-08-09T11:59:06.379Z,2.05
2022-08-09T12:00:15.873Z,1.35
2022-08-09T12:02:15.894Z,1.83
2022-08-09T12:03:00.262Z,2.88
2022-08-09T12:04:32.549Z,1.60
2022-08-09T12:05:42.301Z,1.55
2022-08-09T12:06:56.621Z,1.30
2022-08-09T12:08:00.347Z,1.20
2022-08-09T12:09:15.067Z,2.13
2022-08-09T12:10:38.435Z,2.30
2022-08-09T12:12:03.107Z,1.73
2022-08-09T12:14:09.719Z,2.10
2022-08-09T12:14:41.051Z,2.15
2022-08-09T12:16:03.051Z,1.67
2022-08-09T12:17:34.578Z,1.50
2022-08-09T12:18:36.254Z,1.60
2022-08-09T12:19:42.442Z,1.98
2022-08-09T12:20:46.507Z,2.13
2022-08-09T12:21:51.572Z,2.28
2022-08-09T12:22:57.161Z,1.98
2022-08-09T12:24:09.216Z,2.45
2022-08-09T12:25:14.975Z,2.10
2022-08-09T12:26:26.032Z,2.65
2022-08-09T12:29:13.477Z,1.98
2022-08-09T12:29:29.490Z,1.75
2022-08-09T12:30:36.313Z,2.13
2022-08-09T12:31:58.933Z,1.60
2022-08-09T12:33:08.531Z,1.75
2022-08-09T12:34:18.729Z,2.28
2022-08-09T12:35:24.820Z,1.83
2022-08-09T12:36:33.608Z,1.73
2022-08-09T12:37:49.742Z,2.08
2022-08-09T12:38:54.982Z,2.20
2022-08-09T12:40:05.490Z,1.75
2022-08-09T12:41:08.295Z,1.80
2022-08-09T12:42:16.874Z,1.40
2022-08-09T12:43:23.407Z,1.02
2022-08-09T12:44:52.287Z,1.83
2022-08-09T12:45:59.767Z,1.58
2022-08-09T12:47:05.646Z,2.28
2022-08-09T12:48:27.835Z,2.28
2022-08-09T12:49:51.278Z,1.50
2022-08-09T12:50:56.235Z,1.95
2022-08-09T12:52:03.618Z,1.27
2022-08-09T12:53:18.066Z,1.60
2022-08-09T12:54:24.443Z,1.38
2022-08-09T12:56:15.668Z,1.40
2022-08-09T12:56:55.816Z,1.33
2022-08-09T12:58:11.678Z,1.40
2022-08-09T12:59:57.531Z,1.65
2022-08-09T13:00:57.580Z,1.95
2022-08-09T13:02:09.628Z,2.03
2022-08-09T13:03:24.506Z,1.45
2022-08-09T13:04:38.807Z,2.15
2022-08-09T13:05:51.649Z,1.48
2022-08-09T13:07:14.460Z,1.55
2022-08-09T13:08:39.731Z,1.70
2022-08-09T13:09:52.874Z,1.52
2022-08-09T13:11:23.121Z,1.75
2022-08-09T13:12:29.653Z,1.45
2022-08-09T13:13:38.283Z,2.25
2022-08-09T13:15:07.634Z,1.40
2022-08-09T13:16:12.563Z,1.50
2022-08-09T13:17:43.775Z,1.70
2022-08-09T13:18:49.032Z,1.52
2022-08-09T13:20:10.403Z,1.50
2022-08-09T13:22:38.313Z,1.50
2022-08-09T13:23:05.881Z,2.10
2022-08-09T13:24:53.217Z,2.08
2022-08-09T13:25:43.089Z,1.20
2022-08-09T13:26:58.563Z,1.98
2022-08-09T13:28:14.165Z,1.55
2022-08-09T13:30:02.446Z,1.25
2022-08-09T13:32:15.577Z,1.45
2022-08-09T13:32:50.088Z,2.13
2022-08-09T13:33:54.860Z,1.60
2022-08-09T13:34:59.548Z,1.17
2022-08-09T13:36:37.464Z,1.30
2022-08-09T13:37:51.855Z,1.70
2022-08-09T13:38:57.608Z,1.20
2022-08-09T13:41:56.539Z,1.48
2022-08-09T13:41:57.273Z,1.27
2022-08-09T13:42:53.388Z,2.03
2022-08-09T13:43:55.550Z,2.30
2022-08-09T13:45:00.188Z,1.88
2022-08-09T13:46:44.608Z,1.80
2022-08-09T13:47:43.974Z,2.00
2022-08-09T13:48:54.108Z,1.80
2022-08-09T13:50:01.367Z,1.48
2022-08-09T13:51:03.893Z,1.58
2022-08-09T13:52:09.667Z,1.60
2022-08-09T13:53:17.501Z,1.60
2022-08-09T13:54:20.079Z,1.30
2022-08-09T13:55:30.566Z,2.05
2022-08-09T13:56:32.562Z,1.67
2022-08-09T13:57:40.182Z,1.83
2022-08-09T13:58:45.341Z,1.85
2022-08-09T13:59:47.409Z,1.95
2022-08-09T14:00:52.743Z,1.50
2022-08-09T14:01:56.351Z,1.77
2022-08-09T14:04:02.403Z,1.63
2022-08-09T14:04:33.071Z,1.45
2022-08-09T14:05:58.604Z,1.80
2022-08-09T14:07:04.420Z,1.80
2022-08-09T14:08:10.388Z,1.75
2022-08-09T14:09:15.609Z,2.20
2022-08-09T14:10:37.257Z,2.67
2022-08-09T14:11:47.786Z,1.38
2022-08-09T14:12:52.699Z,1.50
2022-08-09T14:14:22.680Z,1.52
2022-08-09T14:16:07.148Z,1.40
2022-08-09T14:16:44.026Z,1.63
2022-08-09T14:18:06.448Z,1.50
2022-08-09T14:19:13.337Z,1.33
2022-08-09T14:20:16.074Z,1.77
2022-08-09T14:21:23.079Z,1.60
2022-08-09T14:22:25.530Z,1.73
2022-08-09T14:23:40.145Z,2.13
2022-08-09T14:24:57.500Z,1.88
2022-08-09T14:26:01.613Z,1.92
2022-08-09T14:27:15.021Z,1.75
2022-08-09T14:28:22.248Z,1.33
2022-08-09T14:30:33.281Z,2.08
2022-08-09T14:30:56.265Z,1.50
2022-08-09T14:32:10.654Z,1.30
2022-08-09T14:33:21.048Z,1.50
2022-08-09T14:34:30.831Z,2.10
2022-08-09T14:35:51.944Z,1.67
2022-08-09T14:36:55.133Z,1.98
2022-08-09T14:38:03.078Z,1.35
2022-08-09T14:39:08.869Z,1.60
2022-08-09T14:40:17.031Z,1.35
2022-08-09T14:41:34.367Z,1.40
2022-08-09T14:42:43.914Z,1.58
2022-08-09T14:43:53.557Z,2.83
2022-08-09T14:45:00.210Z,1.92
2022-08-09T14:46:56.603Z,2.17
2022-08-09T14:47:44.941Z,1.75
2022-08-09T14:48:54.251Z,1.42
2022-08-09T14:50:01.854Z,2.22
2022-08-09T14:51:07.600Z,3.90
2022-08-09T14:52:13.654Z,1.98
2022-08-09T14:53:17.283Z,2.17
2022-08-09T14:54:22.515Z,1.80
2022-08-09T14:55:35.464Z,2.47
2022-08-09T14:56:58.246Z,2.05
2022-08-09T14:58:03.543Z,1.42
2022-08-09T14:59:05.875Z,1.52
2022-08-09T15:00:19.230Z,1.77
2022-08-09T15:01:21.640Z,1.42
2022-08-09T15:02:26.387Z,1.92
2022-08-09T15:03:28.700Z,1.90
2022-08-09T15:04:33.334Z,1.42
2022-08-09T15:05:36.644Z,1.42
2022-08-09T15:06:41.574Z,1.88
2022-08-09T15:07:56.222Z,1.90
2022-08-09T15:09:01.452Z,1.58
2022-08-09T15:10:11.284Z,2.58
2022-08-09T15:11:21.656Z,2.55
2022-08-09T15:12:24.487Z,2.33
2022-08-09T15:13:48.089Z,2.15
2022-08-09T15:14:56.879Z,1.58
2022-08-09T15:15:58.933Z,1.85
2022-08-09T15:17:04.841Z,1.63
2022-08-09T15:18:14.248Z,1.85
2022-08-09T15:19:19.901Z,1.83
2022-08-09T15:21:55.589Z,1.85
2022-08-09T15:22:01.190Z,2.30
2022-08-09T15:24:01.704Z,2.33
2022-08-09T15:24:33.075Z,1.60
2022-08-09T15:25:40.801Z,1.90
2022-08-09T15:26:48.610Z,1.55
2022-08-09T15:28:00.522Z,1.83
2022-08-09T15:29:06.396Z,2.13
2022-08-09T15:30:55.571Z,2.92
2022-08-09T15:31:41.965Z,1.83
2022-08-09T15:32:45.719Z,1.83
2022-08-09T15:34:18.225Z,1.70
2022-08-09T15:35:18.049Z,2.17
2022-08-09T15:36:25.482Z,1.60
2022-08-09T15:37:57.186Z,1.88
2022-08-09T15:39:03.976Z,1.60
2022-08-09T15:40:12.103Z,1.48
2022-08-09T15:41:22.345Z,1.60
2022-08-09T15:42:29.805Z,2.13
2022-08-09T15:43:37.931Z,1.70
2022-08-09T15:44:40.123Z,1.30
2022-08-09T15:46:07.439Z,1.50
2022-08-09T15:47:14.542Z,1.63
2022-08-09T15:48:30.845Z,1.20
2022-08-09T15:49:34.264Z,1.65
2022-08-09T15:50:43.723Z,1.63
2022-08-09T15:52:03.494Z,1.50
2022-08-09T15:53:18.818Z,2.15
2022-08-09T15:54:44.813Z,1.65
2022-08-09T15:56:04.694Z,1.60
2022-08-09T15:57:35.713Z,1.63
2022-08-09T15:58:46.489Z,2.05
2022-08-09T15:59:51.794Z,1.73
2022-08-09T16:00:56.978Z,1.90
2022-08-09T16:01:59.123Z,1.88
2022-08-09T16:03:04.120Z,2.38
2022-08-09T16:04:06.379Z,1.92
2022-08-09T16:05:18.806Z,1.95
2022-08-09T16:06:34.663Z,1.75